sensor_id;sensor_type;location;lat;lon;timestamp;temperature;humidity
27164;DHT22;14685;50.618;7.024;2023-04-03T00:00:39;9.00;99.90
27164;DHT22;14685;50.618;7.024;2023-04-03T00:03:06;9.00;99.90
27164;DHT22;14685;50.618;7.024;2023-04-03T00:05:33;9.00;99.90
27164;DHT22;14685;50.618;7.024;2023-04-03T00:08:01;9.00;99.90
27164;DHT22;14685;50.618;7.024;2023-04-03T00:10:28;9.00;99.90
27164;DHT22;14685;50.618;7.024;2023-04-03T00:12:55;9.00;99.90
27164;DHT22;14685;50.618;7.024;2023-04-03T00:15:22;9.00;99.90
27164;DHT22;14685;50.618;7.024;2023-04-03T00:17:49;9.00;99.90
27164;DHT22;14685;50.618;7.024;2023-04-03T00:20:16;8.90;99.90
27164;DHT22;14685;50.618;7.024;2023-04-03T00:22:43;8.90;99.90
27164;DHT22;14685;50.618;7.024;2023-04-03T00:25:10;8.90;99.90
27164;DHT22;14685;50.618;7.024;2023-04-03T00:27:38;8.90;99.90
27164;DHT22;14685;50.618;7.024;2023-04-03T00:30:08;8.90;99.90
27164;DHT22;14685;50.618;7.024;2023-04-03T00:32:35;8.90;99.90
27164;DHT22;14685;50.618;7.024;2023-04-03T00:35:02;8.90;99.90
27164;DHT22;14685;50.618;7.024;2023-04-03T00:37:29;8.90;99.90
27164;DHT22;14685;50.618;7.024;2023-04-03T00:39:57;8.80;99.90
27164;DHT22;14685;50.618;7.024;2023-04-03T00:42:24;8.80;99.90
27164;DHT22;14685;50.618;7.024;2023-04-03T00:45:23;8.80;99.90
27164;DHT22;14685;50.618;7.024;2023-04-03T00:47:50;8.80;99.90
27164;DHT22;14685;50.618;7.024;2023-04-03T00:50:18;8.70;99.90
27164;DHT22;14685;50.618;7.024;2023-04-03T00:52:45;8.70;99.90
27164;DHT22;14685;50.618;7.024;2023-04-03T00:55:16;8.70;99.90
27164;DHT22;14685;50.618;7.024;2023-04-03T00:57:44;8.70;99.90
27164;DHT22;14685;50.618;7.024;2023-04-03T01:00:14;8.70;99.90
27164;DHT22;14685;50.618;7.024;2023-04-03T01:02:43;8.70;99.90
27164;DHT22;14685;50.618;7.024;2023-04-03T01:05:10;8.70;99.90
27164;DHT22;14685;50.618;7.024;2023-04-03T01:07:38;8.70;99.90
27164;DHT22;14685;50.618;7.024;2023-04-03T01:10:08;8.70;99.90
27164;DHT22;14685;50.618;7.024;2023-04-03T01:12:38;8.70;99.90
27164;DHT22;14685;50.618;7.024;2023-04-03T01:15:14;8.70;99.90
27164;DHT22;14685;50.618;7.024;2023-04-03T01:17:56;8.70;99.90
27164;DHT22;14685;50.618;7.024;2023-04-03T01:25:51;8.70;99.90
27164;DHT22;14685;50.618;7.024;2023-04-03T01:28:31;8.70;99.90
27164;DHT22;14685;50.618;7.024;2023-04-03T01:31:24;8.70;99.90
27164;DHT22;14685;50.618;7.024;2023-04-03T01:33:52;8.70;99.90
27164;DHT22;14685;50.618;7.024;2023-04-03T01:36:26;8.70;99.90
27164;DHT22;14685;50.618;7.024;2023-04-03T01:38:53;8.70;99.90
27164;DHT22;14685;50.618;7.024;2023-04-03T01:41:20;8.70;99.90
27164;DHT22;14685;50.618;7.024;2023-04-03T01:43:48;8.70;99.90
27164;DHT22;14685;50.618;7.024;2023-04-03T01:46:17;8.70;99.90
27164;DHT22;14685;50.618;7.024;2023-04-03T01:48:44;8.60;99.90
27164;DHT22;14685;50.618;7.024;2023-04-03T01:51:11;8.60;99.90
27164;DHT22;14685;50.618;7.024;2023-04-03T01:53:38;8.60;99.90
27164;DHT22;14685;50.618;7.024;2023-04-03T01:56:06;8.50;99.90
27164;DHT22;14685;50.618;7.024;2023-04-03T01:58:33;8.50;99.90
27164;DHT22;14685;50.618;7.024;2023-04-03T02:01:00;8.50;99.90
27164;DHT22;14685;50.618;7.024;2023-04-03T02:03:27;8.50;99.90
27164;DHT22;14685;50.618;7.024;2023-04-03T02:05:55;8.50;99.90
27164;DHT22;14685;50.618;7.024;2023-04-03T02:08:22;8.50;99.90
27164;DHT22;14685;50.618;7.024;2023-04-03T02:11:07;8.50;99.90
27164;DHT22;14685;50.618;7.024;2023-04-03T02:13:34;8.50;99.90
27164;DHT22;14685;50.618;7.024;2023-04-03T02:16:11;8.50;99.90
27164;DHT22;14685;50.618;7.024;2023-04-03T02:18:39;8.50;99.90
27164;DHT22;14685;50.618;7.024;2023-04-03T02:21:06;8.50;99.90
27164;DHT22;14685;50.618;7.024;2023-04-03T02:23:33;8.50;99.90
27164;DHT22;14685;50.618;7.024;2023-04-03T02:26:05;8.50;99.90
27164;DHT22;14685;50.618;7.024;2023-04-03T02:28:36;8.50;99.90
27164;DHT22;14685;50.618;7.024;2023-04-03T02:31:03;8.50;99.90
27164;DHT22;14685;50.618;7.024;2023-04-03T02:33:31;8.50;99.90
27164;DHT22;14685;50.618;7.024;2023-04-03T02:35:59;8.50;99.90
27164;DHT22;14685;50.618;7.024;2023-04-03T02:38:26;8.50;99.90
27164;DHT22;14685;50.618;7.024;2023-04-03T02:40:53;8.50;99.90
27164;DHT22;14685;50.618;7.024;2023-04-03T02:43:20;8.50;99.90
27164;DHT22;14685;50.618;7.024;2023-04-03T02:45:48;8.50;99.90
27164;DHT22;14685;50.618;7.024;2023-04-03T02:48:16;8.50;99.90
27164;DHT22;14685;50.618;7.024;2023-04-03T02:50:43;8.40;99.90
27164;DHT22;14685;50.618;7.024;2023-04-03T02:53:10;8.40;99.90
27164;DHT22;14685;50.618;7.024;2023-04-03T02:55:37;8.40;99.90
27164;DHT22;14685;50.618;7.024;2023-04-03T02:58:04;8.40;99.90
27164;DHT22;14685;50.618;7.024;2023-04-03T03:00:35;8.30;99.90
27164;DHT22;14685;50.618;7.024;2023-04-03T03:03:03;8.30;99.90
27164;DHT22;14685;50.618;7.024;2023-04-03T03:05:30;8.30;99.90
27164;DHT22;14685;50.618;7.024;2023-04-03T03:07:57;8.30;99.90
27164;DHT22;14685;50.618;7.024;2023-04-03T03:10:24;8.30;99.90
27164;DHT22;14685;50.618;7.024;2023-04-03T03:12:51;8.30;99.90
27164;DHT22;14685;50.618;7.024;2023-04-03T03:15:18;8.30;99.90
27164;DHT22;14685;50.618;7.024;2023-04-03T03:17:45;8.20;99.90
27164;DHT22;14685;50.618;7.024;2023-04-03T03:20:13;8.20;99.90
27164;DHT22;14685;50.618;7.024;2023-04-03T03:22:43;8.20;99.90
27164;DHT22;14685;50.618;7.024;2023-04-03T03:25:10;8.30;99.90
27164;DHT22;14685;50.618;7.024;2023-04-03T03:27:37;8.20;99.90
27164;DHT22;14685;50.618;7.024;2023-04-03T03:30:04;8.20;99.90
27164;DHT22;14685;50.618;7.024;2023-04-03T03:32:32;8.20;99.90
27164;DHT22;14685;50.618;7.024;2023-04-03T03:34:59;8.20;99.90
27164;DHT22;14685;50.618;7.024;2023-04-03T03:37:26;8.20;99.90
27164;DHT22;14685;50.618;7.024;2023-04-03T03:39:53;8.20;99.90
27164;DHT22;14685;50.618;7.024;2023-04-03T03:42:20;8.20;99.90
27164;DHT22;14685;50.618;7.024;2023-04-03T03:44:47;8.20;99.90
27164;DHT22;14685;50.618;7.024;2023-04-03T03:47:14;8.20;99.90
27164;DHT22;14685;50.618;7.024;2023-04-03T03:49:40;8.20;99.90
27164;DHT22;14685;50.618;7.024;2023-04-03T03:52:07;8.10;99.90
27164;DHT22;14685;50.618;7.024;2023-04-03T03:54:37;8.20;99.90
27164;DHT22;14685;50.618;7.024;2023-04-03T03:57:04;8.20;99.90
27164;DHT22;14685;50.618;7.024;2023-04-03T03:59:32;8.10;99.90
27164;DHT22;14685;50.618;7.024;2023-04-03T04:01:58;8.10;99.90
27164;DHT22;14685;50.618;7.024;2023-04-03T04:04:25;8.10;99.90
27164;DHT22;14685;50.618;7.024;2023-04-03T04:06:52;8.10;99.90
27164;DHT22;14685;50.618;7.024;2023-04-03T04:09:19;8.00;99.90
27164;DHT22;14685;50.618;7.024;2023-04-03T04:11:46;8.00;99.90
27164;DHT22;14685;50.618;7.024;2023-04-03T04:14:14;8.00;99.90
27164;DHT22;14685;50.618;7.024;2023-04-03T04:16:40;8.10;99.90
27164;DHT22;14685;50.618;7.024;2023-04-03T04:19:07;8.00;99.90
27164;DHT22;14685;50.618;7.024;2023-04-03T04:21:34;7.90;99.90
27164;DHT22;14685;50.618;7.024;2023-04-03T04:24:03;7.90;99.90
27164;DHT22;14685;50.618;7.024;2023-04-03T04:26:29;7.90;99.90
27164;DHT22;14685;50.618;7.024;2023-04-03T04:28:56;7.80;99.90
27164;DHT22;14685;50.618;7.024;2023-04-03T04:31:25;7.80;99.90
27164;DHT22;14685;50.618;7.024;2023-04-03T04:33:54;7.80;99.90
27164;DHT22;14685;50.618;7.024;2023-04-03T04:36:21;7.80;99.90
27164;DHT22;14685;50.618;7.024;2023-04-03T04:38:48;7.80;99.90
27164;DHT22;14685;50.618;7.024;2023-04-03T04:41:22;7.80;99.90
27164;DHT22;14685;50.618;7.024;2023-04-03T04:43:49;7.80;99.90
27164;DHT22;14685;50.618;7.024;2023-04-03T04:46:17;7.80;99.90
27164;DHT22;14685;50.618;7.024;2023-04-03T04:48:44;7.70;99.90
27164;DHT22;14685;50.618;7.024;2023-04-03T04:51:11;7.70;99.90
27164;DHT22;14685;50.618;7.024;2023-04-03T04:53:39;7.70;99.90
27164;DHT22;14685;50.618;7.024;2023-04-03T04:56:08;7.60;99.90
27164;DHT22;14685;50.618;7.024;2023-04-03T04:58:35;7.60;99.90
27164;DHT22;14685;50.618;7.024;2023-04-03T05:01:07;7.60;99.90
27164;DHT22;14685;50.618;7.024;2023-04-03T05:03:34;7.50;99.90
27164;DHT22;14685;50.618;7.024;2023-04-03T05:06:02;7.50;99.90
27164;DHT22;14685;50.618;7.024;2023-04-03T05:08:30;7.50;99.90
27164;DHT22;14685;50.618;7.024;2023-04-03T05:10:57;7.50;99.90
27164;DHT22;14685;50.618;7.024;2023-04-03T05:13:24;7.50;99.90
27164;DHT22;14685;50.618;7.024;2023-04-03T05:15:51;7.50;99.90
27164;DHT22;14685;50.618;7.024;2023-04-03T05:18:18;7.50;99.90
27164;DHT22;14685;50.618;7.024;2023-04-03T05:20:45;7.50;99.90
27164;DHT22;14685;50.618;7.024;2023-04-03T05:23:11;7.40;99.90
27164;DHT22;14685;50.618;7.024;2023-04-03T05:25:38;7.40;99.90
27164;DHT22;14685;50.618;7.024;2023-04-03T05:28:06;7.40;99.90
27164;DHT22;14685;50.618;7.024;2023-04-03T05:33:34;7.30;99.90
27164;DHT22;14685;50.618;7.024;2023-04-03T05:36:04;7.30;99.90
27164;DHT22;14685;50.618;7.024;2023-04-03T05:38:32;7.20;99.90
27164;DHT22;14685;50.618;7.024;2023-04-03T05:40:59;7.20;99.90
27164;DHT22;14685;50.618;7.024;2023-04-03T05:43:26;7.20;99.90
27164;DHT22;14685;50.618;7.024;2023-04-03T05:45:53;7.20;99.90
27164;DHT22;14685;50.618;7.024;2023-04-03T05:48:20;7.20;99.90
27164;DHT22;14685;50.618;7.024;2023-04-03T05:50:47;7.10;99.90
27164;DHT22;14685;50.618;7.024;2023-04-03T05:53:19;7.10;99.90
27164;DHT22;14685;50.618;7.024;2023-04-03T05:55:47;7.20;99.90
27164;DHT22;14685;50.618;7.024;2023-04-03T05:58:14;7.20;99.90
27164;DHT22;14685;50.618;7.024;2023-04-03T06:00:41;7.20;99.90
27164;DHT22;14685;50.618;7.024;2023-04-03T06:03:09;7.30;99.90
27164;DHT22;14685;50.618;7.024;2023-04-03T06:05:36;7.30;99.90
27164;DHT22;14685;50.618;7.024;2023-04-03T06:08:04;7.30;99.90
27164;DHT22;14685;50.618;7.024;2023-04-03T06:10:31;7.40;99.90
27164;DHT22;14685;50.618;7.024;2023-04-03T06:12:57;7.40;99.90
27164;DHT22;14685;50.618;7.024;2023-04-03T06:15:24;7.50;99.90
27164;DHT22;14685;50.618;7.024;2023-04-03T06:17:51;7.60;99.90
27164;DHT22;14685;50.618;7.024;2023-04-03T06:20:19;7.70;99.90
27164;DHT22;14685;50.618;7.024;2023-04-03T06:22:46;7.80;99.90
27164;DHT22;14685;50.618;7.024;2023-04-03T06:25:14;7.90;99.90
27164;DHT22;14685;50.618;7.024;2023-04-03T06:27:41;7.90;99.90
27164;DHT22;14685;50.618;7.024;2023-04-03T06:30:08;8.00;99.90
27164;DHT22;14685;50.618;7.024;2023-04-03T06:32:36;8.10;99.90
27164;DHT22;14685;50.618;7.024;2023-04-03T06:35:04;8.20;99.90
27164;DHT22;14685;50.618;7.024;2023-04-03T06:37:31;8.30;99.90
27164;DHT22;14685;50.618;7.024;2023-04-03T06:39:58;8.40;99.90
27164;DHT22;14685;50.618;7.024;2023-04-03T06:42:27;8.50;99.90
27164;DHT22;14685;50.618;7.024;2023-04-03T06:44:54;8.60;99.90
27164;DHT22;14685;50.618;7.024;2023-04-03T06:47:21;8.70;99.90
27164;DHT22;14685;50.618;7.024;2023-04-03T06:49:48;8.80;99.90
27164;DHT22;14685;50.618;7.024;2023-04-03T06:52:16;8.90;99.90
27164;DHT22;14685;50.618;7.024;2023-04-03T06:54:42;9.10;99.90
27164;DHT22;14685;50.618;7.024;2023-04-03T06:57:09;9.20;99.90
27164;DHT22;14685;50.618;7.024;2023-04-03T06:59:36;9.40;99.90
27164;DHT22;14685;50.618;7.024;2023-04-03T07:02:04;9.60;99.90
27164;DHT22;14685;50.618;7.024;2023-04-03T07:04:31;9.80;99.90
27164;DHT22;14685;50.618;7.024;2023-04-03T07:06:58;9.90;99.90
27164;DHT22;14685;50.618;7.024;2023-04-03T07:09:24;9.90;99.90
27164;DHT22;14685;50.618;7.024;2023-04-03T07:11:52;10.10;99.90
27164;DHT22;14685;50.618;7.024;2023-04-03T07:14:19;10.20;99.90
27164;DHT22;14685;50.618;7.024;2023-04-03T07:16:46;10.30;99.90
27164;DHT22;14685;50.618;7.024;2023-04-03T07:19:12;10.30;99.90
27164;DHT22;14685;50.618;7.024;2023-04-03T07:21:39;10.40;99.90
27164;DHT22;14685;50.618;7.024;2023-04-03T07:24:08;10.60;99.90
27164;DHT22;14685;50.618;7.024;2023-04-03T07:26:42;10.70;99.90
27164;DHT22;14685;50.618;7.024;2023-04-03T07:29:10;10.70;99.90
27164;DHT22;14685;50.618;7.024;2023-04-03T07:31:40;10.80;99.90
27164;DHT22;14685;50.618;7.024;2023-04-03T07:34:08;11.00;99.90
27164;DHT22;14685;50.618;7.024;2023-04-03T07:39:03;11.20;99.90
27164;DHT22;14685;50.618;7.024;2023-04-03T07:41:30;11.40;99.90
27164;DHT22;14685;50.618;7.024;2023-04-03T07:46:24;11.70;99.90
27164;DHT22;14685;50.618;7.024;2023-04-03T07:48:52;11.90;99.90
27164;DHT22;14685;50.618;7.024;2023-04-03T07:51:20;12.00;99.90
27164;DHT22;14685;50.618;7.024;2023-04-03T07:53:47;12.10;99.90
27164;DHT22;14685;50.618;7.024;2023-04-03T07:56:16;12.20;99.90
27164;DHT22;14685;50.618;7.024;2023-04-03T07:58:43;12.30;99.90
27164;DHT22;14685;50.618;7.024;2023-04-03T08:01:10;12.50;99.90
27164;DHT22;14685;50.618;7.024;2023-04-03T08:03:38;12.70;99.90
27164;DHT22;14685;50.618;7.024;2023-04-03T08:06:07;12.60;99.90
27164;DHT22;14685;50.618;7.024;2023-04-03T08:08:41;12.70;99.90
27164;DHT22;14685;50.618;7.024;2023-04-03T08:11:08;12.80;99.90
27164;DHT22;14685;50.618;7.024;2023-04-03T08:13:35;12.80;99.90
27164;DHT22;14685;50.618;7.024;2023-04-03T08:18:40;13.30;99.90
27164;DHT22;14685;50.618;7.024;2023-04-03T08:21:08;13.40;99.90
27164;DHT22;14685;50.618;7.024;2023-04-03T08:25:24;13.60;99.90
27164;DHT22;14685;50.618;7.024;2023-04-03T08:27:51;13.80;99.90
27164;DHT22;14685;50.618;7.024;2023-04-03T08:30:18;13.90;99.90
27164;DHT22;14685;50.618;7.024;2023-04-03T08:32:45;14.00;99.90
27164;DHT22;14685;50.618;7.024;2023-04-03T08:35:12;14.00;99.90
27164;DHT22;14685;50.618;7.024;2023-04-03T08:37:40;14.00;99.90
27164;DHT22;14685;50.618;7.024;2023-04-03T08:40:12;13.90;99.90
27164;DHT22;14685;50.618;7.024;2023-04-03T08:45:35;13.80;99.90
27164;DHT22;14685;50.618;7.024;2023-04-03T08:48:06;13.80;99.90
27164;DHT22;14685;50.618;7.024;2023-04-03T08:50:39;13.60;99.90
27164;DHT22;14685;50.618;7.024;2023-04-03T08:53:15;13.80;99.90
27164;DHT22;14685;50.618;7.024;2023-04-03T08:55:47;13.70;99.90
27164;DHT22;14685;50.618;7.024;2023-04-03T08:58:23;13.60;99.90
27164;DHT22;14685;50.618;7.024;2023-04-03T09:03:20;13.90;99.90
27164;DHT22;14685;50.618;7.024;2023-04-03T09:06:01;13.90;99.90
27164;DHT22;14685;50.618;7.024;2023-04-03T09:08:44;13.90;99.90
27164;DHT22;14685;50.618;7.024;2023-04-03T09:11:27;13.60;99.90
27164;DHT22;14685;50.618;7.024;2023-04-03T09:15:14;13.50;99.90
27164;DHT22;14685;50.618;7.024;2023-04-03T09:22:46;13.40;99.90
27164;DHT22;14685;50.618;7.024;2023-04-03T09:25:36;13.50;99.90
27164;DHT22;14685;50.618;7.024;2023-04-03T09:28:04;13.50;99.90
27164;DHT22;14685;50.618;7.024;2023-04-03T09:30:36;13.60;99.90
27164;DHT22;14685;50.618;7.024;2023-04-03T09:33:05;13.70;99.90
27164;DHT22;14685;50.618;7.024;2023-04-03T09:35:37;13.80;99.90
27164;DHT22;14685;50.618;7.024;2023-04-03T09:38:17;13.70;99.90
27164;DHT22;14685;50.618;7.024;2023-04-03T09:40:47;13.60;99.90
27164;DHT22;14685;50.618;7.024;2023-04-03T09:45:46;13.50;99.90
27164;DHT22;14685;50.618;7.024;2023-04-03T09:53:43;12.90;99.90
27164;DHT22;14685;50.618;7.024;2023-04-03T10:01:32;12.80;99.90
27164;DHT22;14685;50.618;7.024;2023-04-03T10:04:14;12.70;99.30
27164;DHT22;14685;50.618;7.024;2023-04-03T10:06:47;12.60;99.80
27164;DHT22;14685;50.618;7.024;2023-04-03T10:09:24;12.70;99.90
27164;DHT22;14685;50.618;7.024;2023-04-03T10:12:07;12.80;99.60
27164;DHT22;14685;50.618;7.024;2023-04-03T10:15:02;12.80;99.70
27164;DHT22;14685;50.618;7.024;2023-04-03T10:17:48;12.60;98.90
27164;DHT22;14685;50.618;7.024;2023-04-03T10:20:26;12.60;99.90
27164;DHT22;14685;50.618;7.024;2023-04-03T10:23:17;12.50;99.60
27164;DHT22;14685;50.618;7.024;2023-04-03T10:31:14;12.70;99.90
27164;DHT22;14685;50.618;7.024;2023-04-03T10:39:28;12.50;98.90
27164;DHT22;14685;50.618;7.024;2023-04-03T10:42:14;12.60;99.90
27164;DHT22;14685;50.618;7.024;2023-04-03T10:47:27;12.40;98.90
27164;DHT22;14685;50.618;7.024;2023-04-03T10:53:00;12.50;98.30
27164;DHT22;14685;50.618;7.024;2023-04-03T10:55:44;12.60;99.60
27164;DHT22;14685;50.618;7.024;2023-04-03T11:01:20;12.20;98.40
27164;DHT22;14685;50.618;7.024;2023-04-03T11:03:52;12.00;97.60
27164;DHT22;14685;50.618;7.024;2023-04-03T11:06:22;12.00;98.40
27164;DHT22;14685;50.618;7.024;2023-04-03T11:08:57;12.10;99.10
27164;DHT22;14685;50.618;7.024;2023-04-03T11:11:26;12.30;98.70
27164;DHT22;14685;50.618;7.024;2023-04-03T11:14:26;12.10;98.30
27164;DHT22;14685;50.618;7.024;2023-04-03T11:22:08;12.00;97.30
27164;DHT22;14685;50.618;7.024;2023-04-03T11:24:37;12.00;97.80
27164;DHT22;14685;50.618;7.024;2023-04-03T11:27:15;12.00;97.60
27164;DHT22;14685;50.618;7.024;2023-04-03T11:29:45;12.00;97.70
27164;DHT22;14685;50.618;7.024;2023-04-03T11:32:54;12.10;98.90
27164;DHT22;14685;50.618;7.024;2023-04-03T11:35:17;12.00;97.30
27164;DHT22;14685;50.618;7.024;2023-04-03T11:37:49;12.10;98.50
27164;DHT22;14685;50.618;7.024;2023-04-03T11:40:29;12.10;98.70
27164;DHT22;14685;50.618;7.024;2023-04-03T11:43:14;12.20;98.00
27164;DHT22;14685;50.618;7.024;2023-04-03T11:53:40;12.00;96.50
27164;DHT22;14685;50.618;7.024;2023-04-03T12:01:51;11.80;96.10
27164;DHT22;14685;50.618;7.024;2023-04-03T12:04:21;11.90;96.50
27164;DHT22;14685;50.618;7.024;2023-04-03T12:07:01;11.90;96.30
27164;DHT22;14685;50.618;7.024;2023-04-03T12:09:54;11.90;96.00
27164;DHT22;14685;50.618;7.024;2023-04-03T12:12:32;11.70;95.00
27164;DHT22;14685;50.618;7.024;2023-04-03T12:15:18;11.80;95.40
27164;DHT22;14685;50.618;7.024;2023-04-03T12:17:46;11.80;95.60
27164;DHT22;14685;50.618;7.024;2023-04-03T12:23:33;11.90;94.60
27164;DHT22;14685;50.618;7.024;2023-04-03T12:26:24;11.80;95.00
27164;DHT22;14685;50.618;7.024;2023-04-03T12:28:51;11.80;94.20
27164;DHT22;14685;50.618;7.024;2023-04-03T12:31:22;11.80;93.30
27164;DHT22;14685;50.618;7.024;2023-04-03T12:34:04;11.60;92.90
27164;DHT22;14685;50.618;7.024;2023-04-03T12:39:17;11.50;93.50
27164;DHT22;14685;50.618;7.024;2023-04-03T12:49:52;11.50;92.50
27164;DHT22;14685;50.618;7.024;2023-04-03T12:52:30;11.50;91.60
27164;DHT22;14685;50.618;7.024;2023-04-03T12:55:00;11.40;91.50
27164;DHT22;14685;50.618;7.024;2023-04-03T12:57:31;11.20;92.60
27164;DHT22;14685;50.618;7.024;2023-04-03T13:00:00;11.40;93.70
27164;DHT22;14685;50.618;7.024;2023-04-03T13:02:45;11.40;93.20
27164;DHT22;14685;50.618;7.024;2023-04-03T13:05:17;11.40;92.60
27164;DHT22;14685;50.618;7.024;2023-04-03T13:07:49;11.50;93.10
27164;DHT22;14685;50.618;7.024;2023-04-03T13:10:19;11.40;93.30
27164;DHT22;14685;50.618;7.024;2023-04-03T13:12:52;11.50;94.40
27164;DHT22;14685;50.618;7.024;2023-04-03T13:15:26;11.50;93.60
27164;DHT22;14685;50.618;7.024;2023-04-03T13:17:56;11.50;93.10
27164;DHT22;14685;50.618;7.024;2023-04-03T13:20:29;11.80;92.80
27164;DHT22;14685;50.618;7.024;2023-04-03T13:23:10;11.50;93.40
27164;DHT22;14685;50.618;7.024;2023-04-03T13:25:42;11.50;92.90
27164;DHT22;14685;50.618;7.024;2023-04-03T13:28:13;11.60;92.40
27164;DHT22;14685;50.618;7.024;2023-04-03T13:30:59;11.50;92.50
27164;DHT22;14685;50.618;7.024;2023-04-03T13:33:30;11.60;93.70
27164;DHT22;14685;50.618;7.024;2023-04-03T13:36:06;11.50;93.20
27164;DHT22;14685;50.618;7.024;2023-04-03T13:38:34;11.60;93.90
27164;DHT22;14685;50.618;7.024;2023-04-03T13:41:21;11.60;93.40
27164;DHT22;14685;50.618;7.024;2023-04-03T13:43:49;11.60;93.70
27164;DHT22;14685;50.618;7.024;2023-04-03T13:46:25;11.70;93.40
27164;DHT22;14685;50.618;7.024;2023-04-03T13:48:55;11.70;94.20
27164;DHT22;14685;50.618;7.024;2023-04-03T13:51:27;11.60;93.30
27164;DHT22;14685;50.618;7.024;2023-04-03T13:53:58;11.60;94.00
27164;DHT22;14685;50.618;7.024;2023-04-03T13:56:31;11.50;93.20
27164;DHT22;14685;50.618;7.024;2023-04-03T14:01:52;11.50;92.80
27164;DHT22;14685;50.618;7.024;2023-04-03T14:04:32;11.50;93.30
27164;DHT22;14685;50.618;7.024;2023-04-03T14:07:00;11.40;92.80
27164;DHT22;14685;50.618;7.024;2023-04-03T14:09:28;11.40;92.40
27164;DHT22;14685;50.618;7.024;2023-04-03T14:12:00;11.30;92.40
27164;DHT22;14685;50.618;7.024;2023-04-03T14:14:34;11.20;92.30
27164;DHT22;14685;50.618;7.024;2023-04-03T14:17:15;11.20;93.00
27164;DHT22;14685;50.618;7.024;2023-04-03T14:19:52;11.00;93.20
27164;DHT22;14685;50.618;7.024;2023-04-03T14:22:29;11.30;92.80
27164;DHT22;14685;50.618;7.024;2023-04-03T14:24:58;11.30;93.30
27164;DHT22;14685;50.618;7.024;2023-04-03T14:27:29;11.30;92.80
27164;DHT22;14685;50.618;7.024;2023-04-03T14:29:58;11.30;93.40
27164;DHT22;14685;50.618;7.024;2023-04-03T14:32:26;11.30;92.90
27164;DHT22;14685;50.618;7.024;2023-04-03T14:34:54;11.30;92.80
27164;DHT22;14685;50.618;7.024;2023-04-03T14:37:24;11.30;92.60
27164;DHT22;14685;50.618;7.024;2023-04-03T14:39:52;11.20;92.20
27164;DHT22;14685;50.618;7.024;2023-04-03T14:42:23;11.30;92.40
27164;DHT22;14685;50.618;7.024;2023-04-03T14:44:50;11.40;93.60
27164;DHT22;14685;50.618;7.024;2023-04-03T14:47:24;11.40;93.30
27164;DHT22;14685;50.618;7.024;2023-04-03T14:50:07;11.40;92.50
27164;DHT22;14685;50.618;7.024;2023-04-03T14:52:36;11.40;93.20
27164;DHT22;14685;50.618;7.024;2023-04-03T14:55:05;11.50;92.80
27164;DHT22;14685;50.618;7.024;2023-04-03T14:57:33;11.40;92.70
27164;DHT22;14685;50.618;7.024;2023-04-03T15:00:02;11.40;92.70
27164;DHT22;14685;50.618;7.024;2023-04-03T15:02:34;11.40;93.30
27164;DHT22;14685;50.618;7.024;2023-04-03T15:05:04;11.30;92.50
27164;DHT22;14685;50.618;7.024;2023-04-03T15:07:38;11.30;93.40
27164;DHT22;14685;50.618;7.024;2023-04-03T15:12:42;11.30;93.00
27164;DHT22;14685;50.618;7.024;2023-04-03T15:15:10;11.40;93.80
27164;DHT22;14685;50.618;7.024;2023-04-03T15:17:38;11.40;93.20
27164;DHT22;14685;50.618;7.024;2023-04-03T15:20:15;11.40;93.30
27164;DHT22;14685;50.618;7.024;2023-04-03T15:22:43;11.30;93.10
27164;DHT22;14685;50.618;7.024;2023-04-03T15:25:12;11.30;92.70
27164;DHT22;14685;50.618;7.024;2023-04-03T15:27:40;11.30;93.20
27164;DHT22;14685;50.618;7.024;2023-04-03T15:30:13;11.30;93.70
27164;DHT22;14685;50.618;7.024;2023-04-03T15:32:41;11.30;93.10
27164;DHT22;14685;50.618;7.024;2023-04-03T15:35:09;11.20;92.10
27164;DHT22;14685;50.618;7.024;2023-04-03T15:37:36;11.30;92.60
27164;DHT22;14685;50.618;7.024;2023-04-03T15:40:05;11.20;92.30
27164;DHT22;14685;50.618;7.024;2023-04-03T15:42:33;11.20;92.80
27164;DHT22;14685;50.618;7.024;2023-04-03T15:45:00;11.20;92.90
27164;DHT22;14685;50.618;7.024;2023-04-03T15:47:27;11.20;92.90
27164;DHT22;14685;50.618;7.024;2023-04-03T15:49:54;11.20;92.00
27164;DHT22;14685;50.618;7.024;2023-04-03T15:52:22;11.20;92.20
27164;DHT22;14685;50.618;7.024;2023-04-03T15:54:49;11.10;92.30
27164;DHT22;14685;50.618;7.024;2023-04-03T15:57:16;11.10;92.90
27164;DHT22;14685;50.618;7.024;2023-04-03T15:59:44;11.10;92.30
27164;DHT22;14685;50.618;7.024;2023-04-03T16:02:13;11.00;91.90
27164;DHT22;14685;50.618;7.024;2023-04-03T16:04:40;11.10;92.10
27164;DHT22;14685;50.618;7.024;2023-04-03T16:07:07;11.10;91.80
27164;DHT22;14685;50.618;7.024;2023-04-03T16:09:35;11.10;91.80
27164;DHT22;14685;50.618;7.024;2023-04-03T16:12:02;11.20;91.90
27164;DHT22;14685;50.618;7.024;2023-04-03T16:14:29;11.20;92.20
27164;DHT22;14685;50.618;7.024;2023-04-03T16:16:58;11.10;92.30
27164;DHT22;14685;50.618;7.024;2023-04-03T16:19:29;11.10;92.30
27164;DHT22;14685;50.618;7.024;2023-04-03T16:21:56;11.20;92.30
27164;DHT22;14685;50.618;7.024;2023-04-03T16:24:24;11.10;92.10
27164;DHT22;14685;50.618;7.024;2023-04-03T16:26:52;11.10;91.80
27164;DHT22;14685;50.618;7.024;2023-04-03T16:29:20;11.10;92.20
27164;DHT22;14685;50.618;7.024;2023-04-03T16:31:47;11.20;92.30
27164;DHT22;14685;50.618;7.024;2023-04-03T16:34:14;11.10;92.00
27164;DHT22;14685;50.618;7.024;2023-04-03T16:36:42;10.80;92.40
27164;DHT22;14685;50.618;7.024;2023-04-03T16:39:09;11.10;92.80
27164;DHT22;14685;50.618;7.024;2023-04-03T16:41:37;11.10;92.90
27164;DHT22;14685;50.618;7.024;2023-04-03T16:44:06;11.10;92.40
27164;DHT22;14685;50.618;7.024;2023-04-03T16:46:34;11.10;92.20
27164;DHT22;14685;50.618;7.024;2023-04-03T16:49:06;11.10;92.00
27164;DHT22;14685;50.618;7.024;2023-04-03T16:51:34;11.10;92.20
27164;DHT22;14685;50.618;7.024;2023-04-03T16:54:01;11.10;92.10
27164;DHT22;14685;50.618;7.024;2023-04-03T16:56:28;11.00;91.80
27164;DHT22;14685;50.618;7.024;2023-04-03T16:58:55;10.80;91.80
27164;DHT22;14685;50.618;7.024;2023-04-03T17:01:22;11.00;92.30
27164;DHT22;14685;50.618;7.024;2023-04-03T17:03:49;11.00;92.00
27164;DHT22;14685;50.618;7.024;2023-04-03T17:06:19;11.00;92.50
27164;DHT22;14685;50.618;7.024;2023-04-03T17:08:52;10.80;92.00
27164;DHT22;14685;50.618;7.024;2023-04-03T17:11:19;10.90;92.00
27164;DHT22;14685;50.618;7.024;2023-04-03T17:13:47;10.80;91.90
27164;DHT22;14685;50.618;7.024;2023-04-03T17:16:16;10.80;91.50
27164;DHT22;14685;50.618;7.024;2023-04-03T17:18:43;10.80;92.20
27164;DHT22;14685;50.618;7.024;2023-04-03T17:21:13;10.90;92.60
27164;DHT22;14685;50.618;7.024;2023-04-03T17:23:47;10.80;91.90
27164;DHT22;14685;50.618;7.024;2023-04-03T17:26:17;10.80;91.80
27164;DHT22;14685;50.618;7.024;2023-04-03T17:28:48;10.80;92.30
27164;DHT22;14685;50.618;7.024;2023-04-03T17:31:17;10.60;92.20
27164;DHT22;14685;50.618;7.024;2023-04-03T17:33:46;10.80;92.20
27164;DHT22;14685;50.618;7.024;2023-04-03T17:36:14;10.80;92.60